createdAt,value
2023-04-09T00:01:31.304Z,102573.22
2023-04-09T00:03:59.146Z,102565.88
2023-04-09T00:06:27.234Z,102569.38
2023-04-09T00:08:55.011Z,102572.88
2023-04-09T00:11:22.786Z,102578.19
2023-04-09T00:13:51.907Z,102570.97
2023-04-09T00:16:19.734Z,102574.53
2023-04-09T00:18:47.459Z,102558.19
2023-04-09T00:21:16.171Z,102566.13
2023-04-09T00:23:44.182Z,102558.06
2023-04-09T00:26:12.204Z,102557.06
2023-04-09T00:28:40.006Z,102554.41
2023-04-09T00:31:09.845Z,102553.56
2023-04-09T00:33:37.674Z,102551.63
2023-04-09T00:36:06.076Z,102548.81
2023-04-09T00:38:33.827Z,102547.94
2023-04-09T00:41:01.570Z,102551.53
2023-04-09T00:43:29.954Z,102546.13
2023-04-09T00:45:59.302Z,102546.13
2023-04-09T00:48:28.545Z,102538.94
2023-04-09T00:50:56.297Z,102539.81
2023-04-09T00:53:24.054Z,102540.69
2023-04-09T00:55:51.818Z,102536.94
2023-04-09T00:58:19.632Z,102541.50
2023-04-09T01:00:47.488Z,102542.34
2023-04-09T01:03:15.695Z,102538.78
2023-04-09T01:05:55.406Z,102535.97
2023-04-09T01:08:34.503Z,102542.16
2023-04-09T01:11:13.213Z,102537.63
2023-04-09T01:13:47.189Z,102533.97
2023-04-09T01:16:17.998Z,102532.91
2023-04-09T01:18:53.845Z,102532.00
2023-04-09T01:21:27.497Z,102533.75
2023-04-09T01:24:01.097Z,102534.66
2023-04-09T01:26:47.001Z,102535.41
2023-04-09T01:29:17.633Z,102531.84
2023-04-09T01:31:46.511Z,102527.28
2023-04-09T01:34:15.895Z,102529.91
2023-04-09T01:36:47.484Z,102529.91
2023-04-09T01:39:15.433Z,102532.44
2023-04-09T01:41:44.231Z,102534.28
2023-04-09T01:44:13.562Z,102533.31
2023-04-09T01:46:43.005Z,102534.28
2023-04-09T01:49:12.065Z,102546.78
2023-04-09T01:51:40.137Z,102530.50
2023-04-09T01:54:07.910Z,102535.84
2023-04-09T01:56:42.817Z,102542.13
2023-04-09T01:59:10.744Z,102533.91
2023-04-09T02:01:43.128Z,102536.69
2023-04-09T02:04:18.808Z,102538.44
2023-04-09T02:06:52.025Z,102536.44
2023-04-09T02:09:22.465Z,102543.09
2023-04-09T02:11:51.957Z,102543.88
2023-04-09T02:14:20.158Z,102541.00
2023-04-09T02:16:47.952Z,102540.88
2023-04-09T02:19:17.054Z,102538.88
2023-04-09T02:21:45.139Z,102538.78
2023-04-09T02:24:12.865Z,102544.03
2023-04-09T02:26:40.625Z,102534.25
2023-04-09T02:29:08.365Z,102534.94
2023-04-09T02:31:36.321Z,102536.56
2023-04-09T02:34:04.187Z,102531.16
2023-04-09T02:36:33.306Z,102526.50
2023-04-09T02:39:01.095Z,102521.97
2023-04-09T02:41:28.840Z,102517.50
2023-04-09T02:43:56.552Z,102521.06
2023-04-09T02:46:24.347Z,102511.97
2023-04-09T02:48:52.244Z,102514.69
2023-04-09T02:51:21.073Z,102506.47
2023-04-09T02:53:50.157Z,102505.59
2023-04-09T02:56:17.881Z,102508.50
2023-04-09T02:58:45.602Z,102507.44
2023-04-09T03:01:13.413Z,102507.34
2023-04-09T03:03:42.402Z,102502.69
2023-04-09T03:06:10.560Z,102502.59
2023-04-09T03:08:38.273Z,102496.50
2023-04-09T03:11:07.383Z,102498.34
2023-04-09T03:13:35.105Z,102499.09
2023-04-09T03:16:02.872Z,102495.44
2023-04-09T03:18:30.620Z,102501.91
2023-04-09T03:20:58.375Z,102495.69
2023-04-09T03:23:26.119Z,102502.00
2023-04-09T03:26:02.009Z,102499.09
2023-04-09T03:28:31.542Z,102491.94
2023-04-09T03:30:59.376Z,102486.50
2023-04-09T03:33:27.190Z,102481.75
2023-04-09T03:35:55.046Z,102482.75
2023-04-09T03:38:22.928Z,102483.78
2023-04-09T03:40:50.655Z,102479.25
2023-04-09T03:43:18.472Z,102473.84
2023-04-09T03:45:47.556Z,102471.22
2023-04-09T03:48:15.497Z,102471.41
2023-04-09T03:50:43.469Z,102474.00
2023-04-09T03:53:11.195Z,102473.03
2023-04-09T03:55:39.083Z,102471.41
2023-04-09T03:58:06.829Z,102465.19
2023-04-09T04:00:34.567Z,102452.53
2023-04-09T04:03:03.947Z,102464.34
2023-04-09T04:05:31.875Z,102455.22
2023-04-09T04:07:59.691Z,102463.16
2023-04-09T04:10:27.432Z,102458.63
2023-04-09T04:12:55.288Z,102454.97
2023-04-09T04:15:23.029Z,102458.53
2023-04-09T04:17:50.865Z,102458.63
2023-04-09T04:20:20.400Z,102471.22
2023-04-09T04:22:48.183Z,102459.50
2023-04-09T04:25:16.003Z,102456.69
2023-04-09T04:27:43.797Z,102460.28
2023-04-09T04:30:11.847Z,102449.53
2023-04-09T04:32:39.626Z,102459.50
2023-04-09T04:35:07.915Z,102452.25
2023-04-09T04:37:37.079Z,102445.66
2023-04-09T04:40:05.466Z,102452.16
2023-04-09T04:42:33.194Z,102454.06
2023-04-09T04:45:01.243Z,102447.78
2023-04-09T04:47:29.046Z,102449.59
2023-04-09T04:49:56.791Z,102454.97
2023-04-09T04:52:24.589Z,102462.31
2023-04-09T04:54:53.768Z,102460.56
2023-04-09T04:57:21.558Z,102459.59
2023-04-09T04:59:49.310Z,102463.09
2023-04-09T05:02:17.162Z,102461.25
2023-04-09T05:04:44.902Z,102477.63
2023-04-09T05:07:12.640Z,102471.28
2023-04-09T05:09:42.917Z,102462.09
2023-04-09T05:12:12.086Z,102465.69
2023-04-09T05:14:39.854Z,102462.09
2023-04-09T05:17:07.571Z,102468.41
2023-04-09T05:19:35.356Z,102472.94
2023-04-09T05:22:03.136Z,102480.13
2023-04-09T05:24:30.822Z,102473.94
2023-04-09T05:26:58.561Z,102474.63
2023-04-09T05:29:27.831Z,102469.47
2023-04-09T05:31:55.866Z,102474.09
2023-04-09T05:34:23.635Z,102471.28
2023-04-09T05:36:51.326Z,102481.97
2023-04-09T05:39:19.062Z,102477.34
2023-04-09T05:41:46.824Z,102479.94
2023-04-09T05:44:14.515Z,102469.00
2023-04-09T05:46:43.619Z,102470.84
2023-04-09T05:49:11.566Z,102469.94
2023-04-09T05:51:39.352Z,102484.41
2023-04-09T05:54:07.098Z,102488.84
2023-04-09T05:56:35.180Z,102484.41
2023-04-09T05:59:03.022Z,102485.38
2023-04-09T06:01:30.799Z,102486.34
2023-04-09T06:04:00.362Z,102485.25
2023-04-09T06:06:28.396Z,102488.84
2023-04-09T06:08:56.146Z,102493.28
2023-04-09T06:11:23.876Z,102487.81
2023-04-09T06:13:52.673Z,102490.41
2023-04-09T06:16:20.763Z,102492.16
2023-04-09T06:18:50.977Z,102487.50
2023-04-09T06:21:20.075Z,102482.16
2023-04-09T06:23:47.947Z,102485.78
2023-04-09T06:26:15.644Z,102485.78
2023-04-09T06:28:43.878Z,102490.31
2023-04-09T06:31:12.219Z,102493.13
2023-04-09T06:33:40.024Z,102490.50
2023-04-09T06:36:08.628Z,102494.09
2023-04-09T06:38:37.752Z,102497.47
2023-04-09T06:41:08.445Z,102501.06
2023-04-09T06:43:37.431Z,102502.91
2023-04-09T06:46:05.284Z,102500.19
2023-04-09T06:48:33.161Z,102503.75
2023-04-09T06:51:01.029Z,102509.88
2023-04-09T06:53:28.784Z,102508.06
2023-04-09T06:55:57.920Z,102509.00
2023-04-09T06:58:25.690Z,102505.34
2023-04-09T07:00:53.431Z,102510.75
2023-04-09T07:03:21.480Z,102509.00
2023-04-09T07:05:49.713Z,102511.53
2023-04-09T07:08:17.509Z,102508.91
2023-04-09T07:10:47.300Z,102501.66
2023-04-09T07:13:16.665Z,102503.31
2023-04-09T07:15:44.572Z,102499.44
2023-04-09T07:18:12.397Z,102507.56
2023-04-09T07:20:40.233Z,102497.56
2023-04-09T07:23:07.956Z,102501.97
2023-04-09T07:25:35.721Z,102509.22
2023-04-09T07:28:03.541Z,102500.97
2023-04-09T07:30:32.878Z,102509.22
2023-04-09T07:33:00.733Z,102497.56
2023-04-09T07:35:28.528Z,102500.28
2023-04-09T07:37:57.289Z,102497.56
2023-04-09T07:40:25.251Z,102499.16
2023-04-09T07:42:53.326Z,102503.50
2023-04-09T07:45:21.205Z,102503.69
2023-04-09T07:47:50.441Z,102505.53
2023-04-09T07:50:18.308Z,102509.31
2023-04-09T07:52:46.184Z,102503.09
2023-04-09T07:55:13.919Z,102503.09
2023-04-09T07:57:43.076Z,102502.94
2023-04-09T08:00:12.240Z,102506.41
2023-04-09T08:02:40.117Z,102509.03
2023-04-09T08:05:10.648Z,102512.72
2023-04-09T08:07:38.455Z,102515.31
2023-04-09T08:10:07.641Z,102507.66
2023-04-09T08:12:35.400Z,102510.16
2023-04-09T08:15:03.991Z,102510.00
2023-04-09T08:17:31.973Z,102510.00
2023-04-09T08:19:59.752Z,102508.16
2023-04-09T08:22:28.902Z,102503.88
2023-04-09T08:24:58.454Z,102500.28
2023-04-09T08:27:27.396Z,102504.69
2023-04-09T08:29:55.228Z,102502.94
2023-04-09T08:32:23.054Z,102501.84
2023-04-09T08:34:51.019Z,102501.75
2023-04-09T08:37:18.762Z,102506.00
2023-04-09T08:39:47.867Z,102507.47
2023-04-09T08:42:16.189Z,102509.81
2023-04-09T08:44:44.963Z,102504.19
2023-04-09T08:47:13.105Z,102520.16
2023-04-09T08:49:41.880Z,102519.13
2023-04-09T08:52:09.716Z,102515.34
2023-04-09T08:54:37.526Z,102524.91
2023-04-09T08:57:09.540Z,102519.88
2023-04-09T08:59:37.993Z,102509.78
2023-04-09T09:02:09.923Z,102508.50
2023-04-09T09:04:48.157Z,102515.22
2023-04-09T09:07:16.561Z,102505.31
2023-04-09T09:09:55.714Z,102507.81
2023-04-09T09:12:39.254Z,102504.69
2023-04-09T09:15:26.807Z,102504.97
2023-04-09T09:17:56.985Z,102507.38
2023-04-09T09:20:25.821Z,102500.00
2023-04-09T09:22:55.942Z,102513.38
2023-04-09T09:25:25.778Z,102497.56
2023-04-09T09:27:55.825Z,102498.59
2023-04-09T09:30:25.111Z,102494.97
2023-04-09T09:32:54.828Z,102499.22
2023-04-09T09:35:23.462Z,102499.97
2023-04-09T09:38:03.114Z,102498.00
2023-04-09T09:40:30.954Z,102498.25
2023-04-09T09:43:00.074Z,102494.91
2023-04-09T09:45:28.973Z,102487.00
2023-04-09T09:47:57.002Z,102481.47
2023-04-09T09:50:26.424Z,102489.06
2023-04-09T09:53:00.622Z,102482.22
2023-04-09T09:55:30.538Z,102475.38
2023-04-09T09:58:03.612Z,102472.19
2023-04-09T10:00:33.910Z,102457.38
2023-04-09T10:03:13.321Z,102465.22
2023-04-09T10:05:42.435Z,102460.94
2023-04-09T10:08:11.631Z,102452.00
2023-04-09T10:10:42.574Z,102450.09
2023-04-09T10:13:21.284Z,102449.22
2023-04-09T10:15:50.197Z,102448.81
2023-04-09T10:18:19.395Z,102436.97
2023-04-09T10:20:52.622Z,102433.66
2023-04-09T10:23:28.406Z,102432.34
2023-04-09T10:25:56.471Z,102431.03
2023-04-09T10:28:25.697Z,102423.50
2023-04-09T10:30:55.705Z,102422.78
2023-04-09T10:33:26.716Z,102419.06
2023-04-09T10:35:55.691Z,102424.53
2023-04-09T10:38:37.415Z,102420.81
2023-04-09T10:41:15.395Z,102414.63
2023-04-09T10:43:48.163Z,102417.34
2023-04-09T10:46:29.932Z,102408.44
2023-04-09T10:49:11.332Z,102409.78
2023-04-09T10:51:40.614Z,102399.56
2023-04-09T10:54:43.998Z,102401.47
2023-04-09T10:57:13.730Z,102389.91
2023-04-09T10:59:45.120Z,102398.25
2023-04-09T11:02:39.641Z,102395.47
2023-04-09T11:05:19.443Z,102388.69
2023-04-09T11:07:50.635Z,102385.31
2023-04-09T11:10:18.572Z,102379.59
2023-04-09T11:12:48.086Z,102376.28
2023-04-09T11:15:21.208Z,102367.31
2023-04-09T11:17:49.755Z,102372.91
2023-04-09T11:20:20.687Z,102372.53
2023-04-09T11:22:48.776Z,102368.38
2023-04-09T11:25:20.799Z,102360.22
2023-04-09T11:27:48.652Z,102359.38
2023-04-09T11:30:16.613Z,102354.78
2023-04-09T11:32:45.891Z,102349.31
2023-04-09T11:35:15.905Z,102354.97
2023-04-09T11:37:46.360Z,102349.19
2023-04-09T11:40:18.722Z,102353.53
2023-04-09T11:42:47.310Z,102353.06
2023-04-09T11:45:16.882Z,102357.84
2023-04-09T11:47:46.654Z,102358.22
2023-04-09T11:50:16.145Z,102359.06
2023-04-09T11:52:44.529Z,102358.03
2023-04-09T11:55:12.845Z,102356.63
2023-04-09T11:57:42.963Z,102356.03
2023-04-09T12:00:13.484Z,102355.75
2023-04-09T12:02:43.434Z,102357.78
2023-04-09T12:05:14.677Z,102352.06
2023-04-09T12:07:55.436Z,102352.53
2023-04-09T12:10:28.648Z,102353.03
2023-04-09T12:12:57.088Z,102341.31
2023-04-09T12:15:26.137Z,102339.59
2023-04-09T12:17:56.491Z,102338.59
2023-04-09T12:20:37.325Z,102339.94
2023-04-09T12:23:07.011Z,102354.09
2023-04-09T12:25:36.683Z,102351.63
2023-04-09T12:28:05.654Z,102354.22
2023-04-09T12:30:34.172Z,102353.06
2023-04-09T12:33:02.529Z,102347.31
2023-04-09T12:35:30.444Z,102340.81
2023-04-09T12:38:00.701Z,102338.66
2023-04-09T12:40:28.706Z,102342.66
2023-04-09T12:42:56.576Z,102347.72
2023-04-09T12:45:24.395Z,102347.16
2023-04-09T12:47:53.002Z,102343.09
2023-04-09T12:50:20.886Z,102341.75
2023-04-09T12:52:48.975Z,102340.34
2023-04-09T12:55:18.296Z,102347.66
2023-04-09T12:57:47.652Z,102348.78
2023-04-09T13:00:16.479Z,102337.81
2023-04-09T13:02:44.420Z,102333.09
2023-04-09T13:05:14.702Z,102329.34
2023-04-09T13:07:43.491Z,102336.06
2023-04-09T13:10:12.062Z,102346.47
2023-04-09T13:12:41.326Z,102341.09
2023-04-09T13:15:09.324Z,102339.03
2023-04-09T13:17:37.125Z,102337.41
2023-04-09T13:20:05.602Z,102336.84
2023-04-09T13:22:36.160Z,102323.50
2023-04-09T13:25:05.061Z,102321.16
2023-04-09T13:27:32.878Z,102312.63
2023-04-09T13:30:02.003Z,102311.34
2023-04-09T13:32:29.928Z,102305.28
2023-04-09T13:34:58.042Z,102309.94
2023-04-09T13:37:26.045Z,102312.19
2023-04-09T13:39:53.789Z,102304.22
2023-04-09T13:42:21.511Z,102302.72
2023-04-09T13:44:49.285Z,102295.66
2023-04-09T13:47:19.020Z,102285.78
2023-04-09T13:49:46.869Z,102279.59
2023-04-09T13:52:15.383Z,102278.22
2023-04-09T13:54:43.149Z,102276.09
2023-04-09T13:57:11.409Z,102272.47
2023-04-09T13:59:41.637Z,102268.78
2023-04-09T14:02:10.311Z,102277.78
2023-04-09T14:04:39.648Z,102278.38
2023-04-09T14:07:07.585Z,102277.22
2023-04-09T14:09:35.324Z,102282.47
2023-04-09T14:12:03.133Z,102276.66
2023-04-09T14:14:30.927Z,102274.31
2023-04-09T14:16:58.713Z,102256.97
2023-04-09T14:19:26.500Z,102260.19
2023-04-09T14:21:56.009Z,102258.94
2023-04-09T14:24:23.873Z,102255.25
2023-04-09T14:26:53.440Z,102254.78
2023-04-09T14:29:22.126Z,102245.91
2023-04-09T14:31:50.042Z,102245.59
2023-04-09T14:34:17.907Z,102238.47
2023-04-09T14:36:45.707Z,102232.31
2023-04-09T14:39:14.873Z,102221.56
2023-04-09T14:41:42.704Z,102218.09
2023-04-09T14:44:10.475Z,102214.88
2023-04-09T14:46:38.303Z,102206.19
2023-04-09T14:49:06.357Z,102201.00
2023-04-09T14:51:34.294Z,102199.66
2023-04-09T14:54:02.652Z,102194.88
2023-04-09T14:56:31.810Z,102193.78
2023-04-09T14:58:59.975Z,102202.34
2023-04-09T15:01:28.181Z,102206.81
2023-04-09T15:03:56.355Z,102207.50
2023-04-09T15:06:24.226Z,102191.75
2023-04-09T15:08:52.327Z,102196.97
2023-04-09T15:11:23.384Z,102194.44
2023-04-09T15:13:52.702Z,102194.19
2023-04-09T15:16:25.877Z,102192.75
2023-04-09T15:18:55.706Z,102191.16
2023-04-09T15:21:23.835Z,102185.28
2023-04-09T15:23:52.351Z,102187.91
2023-04-09T15:26:20.754Z,102198.31
2023-04-09T15:28:49.057Z,102195.91
2023-04-09T15:31:20.049Z,102190.47
2023-04-09T15:33:48.266Z,102210.09
2023-04-09T15:36:16.112Z,102196.84
2023-04-09T15:38:43.900Z,102190.34
2023-04-09T15:41:11.687Z,102183.41
2023-04-09T15:43:39.463Z,102182.97
2023-04-09T15:46:11.223Z,102187.75
2023-04-09T15:48:40.390Z,102182.97
2023-04-09T15:51:08.399Z,102177.63
2023-04-09T15:53:36.204Z,102180.81
2023-04-09T15:56:05.477Z,102175.81
2023-04-09T15:58:33.529Z,102168.44
2023-04-09T16:01:01.426Z,102171.34
2023-04-09T16:03:29.377Z,102172.78
2023-04-09T16:06:01.645Z,102172.38
2023-04-09T16:08:29.426Z,102164.31
2023-04-09T16:10:57.231Z,102164.59
2023-04-09T16:13:25.157Z,102159.56
2023-04-09T16:15:53.176Z,102168.81
2023-04-09T16:18:21.213Z,102161.03
2023-04-09T16:20:49.038Z,102169.13
2023-04-09T16:23:18.277Z,102163.66
2023-04-09T16:25:46.084Z,102155.84
2023-04-09T16:28:14.193Z,102160.63
2023-04-09T16:30:42.099Z,102159.75
2023-04-09T16:33:10.027Z,102161.19
2023-04-09T16:35:39.591Z,102154.84
2023-04-09T16:38:07.985Z,102153.69
2023-04-09T16:40:37.327Z,102139.41
2023-04-09T16:43:05.311Z,102141.47
2023-04-09T16:45:33.189Z,102142.47
2023-04-09T16:48:01.006Z,102145.63
2023-04-09T16:50:28.900Z,102147.38
2023-04-09T16:52:56.686Z,102142.16
2023-04-09T16:55:24.644Z,102146.34
2023-04-09T16:57:56.037Z,102152.84
2023-04-09T17:00:23.949Z,102143.16
2023-04-09T17:02:52.122Z,102149.69
2023-04-09T17:05:20.355Z,102145.22
2023-04-09T17:07:48.245Z,102134.13
2023-04-09T17:10:16.432Z,102139.44
2023-04-09T17:12:44.376Z,102144.22
2023-04-09T17:15:13.882Z,102140.03
2023-04-09T17:17:41.789Z,102143.06
2023-04-09T17:20:10.603Z,102144.34
2023-04-09T17:22:39.292Z,102153.16
2023-04-09T17:25:08.556Z,102139.59
2023-04-09T17:27:36.626Z,102137.16
2023-04-09T17:30:05.031Z,102147.25
2023-04-09T17:32:34.279Z,102146.50
2023-04-09T17:35:03.647Z,102153.88
2023-04-09T17:37:31.467Z,102147.09
2023-04-09T17:39:59.279Z,102145.50
2023-04-09T17:42:27.373Z,102147.56
2023-04-09T17:44:55.094Z,102146.97
2023-04-09T17:47:23.043Z,102143.66
2023-04-09T17:49:53.162Z,102152.44
2023-04-09T17:52:21.264Z,102150.13
2023-04-09T17:54:50.637Z,102144.34
2023-04-09T17:57:18.460Z,102137.69
2023-04-09T17:59:46.267Z,102141.16
2023-04-09T18:02:14.233Z,102140.88
2023-04-09T18:04:42.382Z,102133.81
2023-04-09T18:07:11.687Z,102143.88
2023-04-09T18:09:40.560Z,102141.69
2023-04-09T18:12:08.473Z,102138.22
2023-04-09T18:14:36.311Z,102142.84
2023-04-09T18:17:04.151Z,102137.63
2023-04-09T18:19:32.128Z,102143.22
2023-04-09T18:21:59.932Z,102146.25
2023-04-09T18:24:29.306Z,102138.16
2023-04-09T18:26:57.643Z,102146.81
2023-04-09T18:29:27.179Z,102139.88
2023-04-09T18:31:55.820Z,102149.06
2023-04-09T18:34:23.947Z,102151.22
2023-04-09T18:36:51.854Z,102141.84
2023-04-09T18:39:20.663Z,102146.75
2023-04-09T18:41:49.990Z,102140.78
2023-04-09T18:44:20.744Z,102142.22
2023-04-09T18:46:48.589Z,102139.44
2023-04-09T18:49:16.393Z,102141.00
2023-04-09T18:51:44.356Z,102141.78
2023-04-09T18:54:12.182Z,102151.25
2023-04-09T18:56:39.925Z,102145.06
2023-04-09T18:59:09.241Z,102141.88
2023-04-09T19:01:37.069Z,102139.53
2023-04-09T19:04:04.976Z,102140.22
2023-04-09T19:06:33.193Z,102144.22
2023-04-09T19:09:01.219Z,102141.88
2023-04-09T19:11:29.423Z,102142.53
2023-04-09T19:13:57.281Z,102139.09
2023-04-09T19:16:26.489Z,102153.97
2023-04-09T19:18:54.476Z,102146.94
2023-04-09T19:21:22.520Z,102162.00
2023-04-09T19:23:50.328Z,102154.28
2023-04-09T19:26:18.237Z,102157.41
2023-04-09T19:28:46.908Z,102158.53
2023-04-09T19:31:15.175Z,102157.03
2023-04-09T19:33:44.313Z,102155.81
2023-04-09T19:36:13.018Z,102150.03
2023-04-09T19:38:40.980Z,102145.69
2023-04-09T19:41:11.339Z,102144.09
2023-04-09T19:43:39.426Z,102143.03
2023-04-09T19:46:08.429Z,102142.78
2023-04-09T19:48:36.271Z,102147.00
2023-04-09T19:51:05.660Z,102138.59
2023-04-09T19:53:33.561Z,102133.41
2023-04-09T19:56:01.421Z,102133.03
2023-04-09T19:58:29.317Z,102134.44
2023-04-09T20:00:57.127Z,102140.38
2023-04-09T20:03:25.088Z,102127.97
2023-04-09T20:05:53.531Z,102130.97
2023-04-09T20:08:22.670Z,102145.81
2023-04-09T20:10:50.661Z,102144.09
2023-04-09T20:13:18.421Z,102143.34
2023-04-09T20:15:46.178Z,102130.84
2023-04-09T20:18:13.983Z,102137.28
2023-04-09T20:20:41.759Z,102127.50
2023-04-09T20:23:09.572Z,102112.50
2023-04-09T20:25:38.716Z,102109.03
2023-04-09T20:28:06.563Z,102109.44
2023-04-09T20:30:34.408Z,102104.09
2023-04-09T20:33:02.367Z,102105.09
2023-04-09T20:35:30.148Z,102106.94
2023-04-09T20:37:57.928Z,102107.19
2023-04-09T20:40:25.900Z,102101.97
2023-04-09T20:42:55.082Z,102109.41
2023-04-09T20:45:22.926Z,102106.06
2023-04-09T20:47:51.992Z,102112.75
2023-04-09T20:50:20.484Z,102105.56
2023-04-09T20:52:49.595Z,102113.09
2023-04-09T20:55:17.622Z,102120.53
2023-04-09T20:57:45.414Z,102120.88
2023-04-09T21:00:15.225Z,102115.56
2023-04-09T21:02:43.131Z,102114.81
2023-04-09T21:05:21.816Z,102128.91
2023-04-09T21:07:51.198Z,102108.34
2023-04-09T21:10:19.120Z,102117.53
2023-04-09T21:12:46.925Z,102117.00
2023-04-09T21:15:16.273Z,102116.28
2023-04-09T21:17:44.089Z,102109.22
2023-04-09T21:20:12.667Z,102107.59
2023-04-09T21:22:40.478Z,102102.53
2023-04-09T21:25:08.894Z,102102.03
2023-04-09T21:27:36.705Z,102110.28
2023-04-09T21:30:04.847Z,102115.72
2023-04-09T21:32:33.992Z,102110.53
2023-04-09T21:35:01.780Z,102107.81
2023-04-09T21:37:31.952Z,102097.91
2023-04-09T21:39:59.775Z,102104.59
2023-04-09T21:42:27.602Z,102092.19
2023-04-09T21:44:55.328Z,102104.06
2023-04-09T21:47:23.700Z,102099.34
2023-04-09T21:49:52.945Z,102100.44
2023-04-09T21:52:20.688Z,102089.16
2023-04-09T21:54:48.461Z,102088.53
2023-04-09T21:57:16.224Z,102101.41
2023-04-09T21:59:44.059Z,102101.75
2023-04-09T22:02:11.981Z,102099.25
2023-04-09T22:04:42.537Z,102098.50
2023-04-09T22:07:12.437Z,102105.78
2023-04-09T22:09:40.369Z,102105.16
2023-04-09T22:12:08.556Z,102101.91
2023-04-09T22:14:36.351Z,102097.44
2023-04-09T22:17:04.233Z,102089.53
2023-04-09T22:19:33.064Z,102096.94
2023-04-09T22:22:00.878Z,102100.88
2023-04-09T22:24:30.499Z,102098.25
2023-04-09T22:26:59.870Z,102098.38
2023-04-09T22:29:27.994Z,102095.03
2023-04-09T22:31:55.979Z,102096.97
2023-04-09T22:34:23.733Z,102094.63
2023-04-09T22:36:51.622Z,102088.56
2023-04-09T22:39:19.457Z,102089.75
2023-04-09T22:41:48.636Z,102082.81
2023-04-09T22:44:16.500Z,102074.13
2023-04-09T22:46:44.320Z,102073.38
2023-04-09T22:49:12.369Z,102075.97
2023-04-09T22:51:41.763Z,102071.75
2023-04-09T22:54:09.790Z,102078.41
2023-04-09T22:56:37.739Z,102074.03
2023-04-09T22:59:07.154Z,102081.34
2023-04-09T23:01:35.620Z,102077.78
2023-04-09T23:04:03.494Z,102074.16
2023-04-09T23:06:32.004Z,102069.84
2023-04-09T23:08:59.995Z,102076.31
2023-04-09T23:11:28.262Z,102062.22
2023-04-09T23:13:56.054Z,102066.13
2023-04-09T23:16:26.288Z,102055.63
2023-04-09T23:18:54.505Z,102061.06
2023-04-09T23:21:22.444Z,102065.59
2023-04-09T23:23:50.334Z,102063.00
2023-04-09T23:26:18.081Z,102058.66
2023-04-09T23:28:45.828Z,102050.84
2023-04-09T23:31:13.574Z,102063.56
2023-04-09T23:33:42.783Z,102048.38
2023-04-09T23:36:10.898Z,102047.47
2023-04-09T23:38:40.375Z,102032.28
2023-04-09T23:41:08.310Z,102027.19
2023-04-09T23:43:36.129Z,102031.13
2023-04-09T23:46:03.872Z,102021.69
2023-04-09T23:48:31.617Z,102017.47
2023-04-09T23:51:00.742Z,102027.03
2023-04-09T23:53:28.538Z,102014.63
2023-04-09T23:55:56.293Z,102018.56
2023-04-09T23:58:24.091Z,102012.59
